sensor_id;sensor_type;location;lat;lon;timestamp;temperature;humidity
16814;DHT22;8524;57.650;11.926;2023-07-13T00:00:10;15.60;99.90
16814;DHT22;8524;57.650;11.926;2023-07-13T00:02:39;15.60;99.90
16814;DHT22;8524;57.650;11.926;2023-07-13T00:05:07;15.60;99.90
16814;DHT22;8524;57.650;11.926;2023-07-13T00:07:34;15.60;99.90
16814;DHT22;8524;57.650;11.926;2023-07-13T00:10:02;15.70;99.90
16814;DHT22;8524;57.650;11.926;2023-07-13T00:12:31;15.70;99.90
16814;DHT22;8524;57.650;11.926;2023-07-13T00:15:00;15.60;99.90
16814;DHT22;8524;57.650;11.926;2023-07-13T00:17:28;15.60;99.90
16814;DHT22;8524;57.650;11.926;2023-07-13T00:19:57;15.60;99.90
16814;DHT22;8524;57.650;11.926;2023-07-13T00:22:24;15.60;99.90
16814;DHT22;8524;57.650;11.926;2023-07-13T00:24:52;15.50;99.90
16814;DHT22;8524;57.650;11.926;2023-07-13T00:27:22;15.60;99.90
16814;DHT22;8524;57.650;11.926;2023-07-13T00:29:49;15.60;99.90
16814;DHT22;8524;57.650;11.926;2023-07-13T00:32:16;15.60;99.90
16814;DHT22;8524;57.650;11.926;2023-07-13T00:34:43;15.60;99.90
16814;DHT22;8524;57.650;11.926;2023-07-13T00:37:11;15.60;99.90
16814;DHT22;8524;57.650;11.926;2023-07-13T00:39:38;15.60;99.90
16814;DHT22;8524;57.650;11.926;2023-07-13T00:42:06;15.60;99.90
16814;DHT22;8524;57.650;11.926;2023-07-13T00:44:33;15.60;99.90
16814;DHT22;8524;57.650;11.926;2023-07-13T00:47:00;15.60;99.90
16814;DHT22;8524;57.650;11.926;2023-07-13T00:49:29;15.70;99.90
16814;DHT22;8524;57.650;11.926;2023-07-13T00:52:00;15.60;99.90
16814;DHT22;8524;57.650;11.926;2023-07-13T00:54:31;15.60;99.90
16814;DHT22;8524;57.650;11.926;2023-07-13T00:57:01;15.70;99.90
16814;DHT22;8524;57.650;11.926;2023-07-13T00:59:29;15.60;99.90
16814;DHT22;8524;57.650;11.926;2023-07-13T01:01:57;15.50;99.90
16814;DHT22;8524;57.650;11.926;2023-07-13T01:04:24;15.60;99.90
16814;DHT22;8524;57.650;11.926;2023-07-13T01:06:52;15.60;99.90
16814;DHT22;8524;57.650;11.926;2023-07-13T01:09:19;15.60;99.90
16814;DHT22;8524;57.650;11.926;2023-07-13T01:11:48;15.60;99.90
16814;DHT22;8524;57.650;11.926;2023-07-13T01:14:15;15.60;99.90
16814;DHT22;8524;57.650;11.926;2023-07-13T01:16:45;15.60;99.90
16814;DHT22;8524;57.650;11.926;2023-07-13T01:19:33;15.60;99.90
16814;DHT22;8524;57.650;11.926;2023-07-13T01:22:06;15.70;99.90
16814;DHT22;8524;57.650;11.926;2023-07-13T01:24:35;15.70;99.90
16814;DHT22;8524;57.650;11.926;2023-07-13T01:27:03;15.70;99.90
16814;DHT22;8524;57.650;11.926;2023-07-13T01:29:32;15.70;99.90
16814;DHT22;8524;57.650;11.926;2023-07-13T01:31:59;15.70;99.90
16814;DHT22;8524;57.650;11.926;2023-07-13T01:34:27;15.80;99.90
16814;DHT22;8524;57.650;11.926;2023-07-13T01:36:54;15.80;99.90
16814;DHT22;8524;57.650;11.926;2023-07-13T01:39:23;15.80;99.90
16814;DHT22;8524;57.650;11.926;2023-07-13T01:41:50;15.80;99.90
16814;DHT22;8524;57.650;11.926;2023-07-13T01:44:17;15.70;99.90
16814;DHT22;8524;57.650;11.926;2023-07-13T01:46:44;15.80;99.90
16814;DHT22;8524;57.650;11.926;2023-07-13T01:49:11;15.80;99.90
16814;DHT22;8524;57.650;11.926;2023-07-13T01:51:38;15.80;99.90
16814;DHT22;8524;57.650;11.926;2023-07-13T01:54:05;15.80;99.90
16814;DHT22;8524;57.650;11.926;2023-07-13T01:56:34;15.90;99.90
16814;DHT22;8524;57.650;11.926;2023-07-13T01:59:01;15.90;99.90
16814;DHT22;8524;57.650;11.926;2023-07-13T02:01:28;15.80;99.90
16814;DHT22;8524;57.650;11.926;2023-07-13T02:03:55;15.90;99.90
16814;DHT22;8524;57.650;11.926;2023-07-13T02:06:22;15.80;99.90
16814;DHT22;8524;57.650;11.926;2023-07-13T02:08:49;15.80;99.90
16814;DHT22;8524;57.650;11.926;2023-07-13T02:11:16;15.80;99.90
16814;DHT22;8524;57.650;11.926;2023-07-13T02:13:44;15.80;99.90
16814;DHT22;8524;57.650;11.926;2023-07-13T02:16:11;15.80;99.90
16814;DHT22;8524;57.650;11.926;2023-07-13T02:18:39;15.70;99.90
16814;DHT22;8524;57.650;11.926;2023-07-13T02:21:06;15.70;99.90
16814;DHT22;8524;57.650;11.926;2023-07-13T02:23:33;15.60;99.90
16814;DHT22;8524;57.650;11.926;2023-07-13T02:26:01;15.60;99.90
16814;DHT22;8524;57.650;11.926;2023-07-13T02:28:29;15.60;99.90
16814;DHT22;8524;57.650;11.926;2023-07-13T02:31:04;15.60;99.90
16814;DHT22;8524;57.650;11.926;2023-07-13T02:33:31;15.60;99.90
16814;DHT22;8524;57.650;11.926;2023-07-13T02:35:58;15.60;99.90
16814;DHT22;8524;57.650;11.926;2023-07-13T02:38:25;15.60;99.90
16814;DHT22;8524;57.650;11.926;2023-07-13T02:40:53;15.60;99.90
16814;DHT22;8524;57.650;11.926;2023-07-13T02:43:20;15.60;99.90
16814;DHT22;8524;57.650;11.926;2023-07-13T02:45:46;15.50;99.90
16814;DHT22;8524;57.650;11.926;2023-07-13T02:48:15;15.60;99.90
16814;DHT22;8524;57.650;11.926;2023-07-13T02:50:42;15.60;99.90
16814;DHT22;8524;57.650;11.926;2023-07-13T02:53:10;15.60;99.90
16814;DHT22;8524;57.650;11.926;2023-07-13T02:55:37;15.60;99.90
16814;DHT22;8524;57.650;11.926;2023-07-13T02:58:06;15.60;99.90
16814;DHT22;8524;57.650;11.926;2023-07-13T03:00:33;15.60;99.90
16814;DHT22;8524;57.650;11.926;2023-07-13T03:03:00;15.70;99.90
16814;DHT22;8524;57.650;11.926;2023-07-13T03:05:29;15.70;99.90
16814;DHT22;8524;57.650;11.926;2023-07-13T03:07:56;15.70;99.90
16814;DHT22;8524;57.650;11.926;2023-07-13T03:10:23;15.80;99.90
16814;DHT22;8524;57.650;11.926;2023-07-13T03:12:50;15.80;99.90
16814;DHT22;8524;57.650;11.926;2023-07-13T03:15:18;15.70;99.90
16814;DHT22;8524;57.650;11.926;2023-07-13T03:17:45;15.70;99.90
16814;DHT22;8524;57.650;11.926;2023-07-13T03:20:12;15.80;99.90
16814;DHT22;8524;57.650;11.926;2023-07-13T03:22:41;15.70;99.90
16814;DHT22;8524;57.650;11.926;2023-07-13T03:25:08;15.70;99.90
16814;DHT22;8524;57.650;11.926;2023-07-13T03:27:36;15.70;99.90
16814;DHT22;8524;57.650;11.926;2023-07-13T03:30:04;15.60;99.90
16814;DHT22;8524;57.650;11.926;2023-07-13T03:32:31;15.70;99.90
16814;DHT22;8524;57.650;11.926;2023-07-13T03:34:59;15.70;99.90
16814;DHT22;8524;57.650;11.926;2023-07-13T03:37:26;15.70;99.90
16814;DHT22;8524;57.650;11.926;2023-07-13T03:39:55;15.80;99.90
16814;DHT22;8524;57.650;11.926;2023-07-13T03:42:22;15.80;99.90
16814;DHT22;8524;57.650;11.926;2023-07-13T03:44:49;15.90;99.90
16814;DHT22;8524;57.650;11.926;2023-07-13T03:47:18;16.00;99.90
16814;DHT22;8524;57.650;11.926;2023-07-13T03:49:45;16.00;99.90
16814;DHT22;8524;57.650;11.926;2023-07-13T03:52:12;16.00;99.90
16814;DHT22;8524;57.650;11.926;2023-07-13T03:54:39;16.10;99.90
16814;DHT22;8524;57.650;11.926;2023-07-13T03:57:08;16.00;99.90
16814;DHT22;8524;57.650;11.926;2023-07-13T03:59:35;16.10;99.90
16814;DHT22;8524;57.650;11.926;2023-07-13T04:02:02;16.10;99.90
16814;DHT22;8524;57.650;11.926;2023-07-13T04:04:30;16.00;99.90
16814;DHT22;8524;57.650;11.926;2023-07-13T04:06:57;16.00;99.90
16814;DHT22;8524;57.650;11.926;2023-07-13T04:09:25;16.00;99.90
16814;DHT22;8524;57.650;11.926;2023-07-13T04:11:52;16.00;99.90
16814;DHT22;8524;57.650;11.926;2023-07-13T04:14:20;15.90;99.90
16814;DHT22;8524;57.650;11.926;2023-07-13T04:16:47;15.90;99.90
16814;DHT22;8524;57.650;11.926;2023-07-13T04:19:14;15.90;99.90
16814;DHT22;8524;57.650;11.926;2023-07-13T04:21:41;16.00;99.90
16814;DHT22;8524;57.650;11.926;2023-07-13T04:24:08;16.00;99.90
16814;DHT22;8524;57.650;11.926;2023-07-13T04:26:35;16.10;99.90
16814;DHT22;8524;57.650;11.926;2023-07-13T04:29:04;16.10;99.90
16814;DHT22;8524;57.650;11.926;2023-07-13T04:31:33;16.10;99.90
16814;DHT22;8524;57.650;11.926;2023-07-13T04:34:00;16.20;99.90
16814;DHT22;8524;57.650;11.926;2023-07-13T04:36:30;16.20;99.90
16814;DHT22;8524;57.650;11.926;2023-07-13T04:38:57;16.30;99.90
16814;DHT22;8524;57.650;11.926;2023-07-13T04:41:24;16.30;99.90
16814;DHT22;8524;57.650;11.926;2023-07-13T04:43:51;16.40;99.90
16814;DHT22;8524;57.650;11.926;2023-07-13T04:46:18;16.30;99.90
16814;DHT22;8524;57.650;11.926;2023-07-13T04:48:49;16.40;99.90
16814;DHT22;8524;57.650;11.926;2023-07-13T04:51:16;16.40;99.90
16814;DHT22;8524;57.650;11.926;2023-07-13T04:53:43;16.40;99.90
16814;DHT22;8524;57.650;11.926;2023-07-13T04:56:10;16.40;99.90
16814;DHT22;8524;57.650;11.926;2023-07-13T04:58:37;16.40;99.90
16814;DHT22;8524;57.650;11.926;2023-07-13T05:01:06;16.40;99.90
16814;DHT22;8524;57.650;11.926;2023-07-13T05:03:34;16.50;99.90
16814;DHT22;8524;57.650;11.926;2023-07-13T05:06:05;16.40;99.90
16814;DHT22;8524;57.650;11.926;2023-07-13T05:08:33;16.40;99.90
16814;DHT22;8524;57.650;11.926;2023-07-13T05:11:00;16.50;99.90
16814;DHT22;8524;57.650;11.926;2023-07-13T05:13:27;16.60;99.90
16814;DHT22;8524;57.650;11.926;2023-07-13T05:15:59;16.80;99.90
16814;DHT22;8524;57.650;11.926;2023-07-13T05:18:26;16.90;99.90
16814;DHT22;8524;57.650;11.926;2023-07-13T05:21:01;17.10;99.90
16814;DHT22;8524;57.650;11.926;2023-07-13T05:23:30;17.20;99.90
16814;DHT22;8524;57.650;11.926;2023-07-13T05:25:58;17.30;99.90
16814;DHT22;8524;57.650;11.926;2023-07-13T05:28:26;17.40;99.90
16814;DHT22;8524;57.650;11.926;2023-07-13T05:30:53;17.60;99.90
16814;DHT22;8524;57.650;11.926;2023-07-13T05:33:20;17.50;99.90
16814;DHT22;8524;57.650;11.926;2023-07-13T05:35:47;17.60;99.90
16814;DHT22;8524;57.650;11.926;2023-07-13T05:38:14;17.70;99.90
16814;DHT22;8524;57.650;11.926;2023-07-13T05:40:44;17.70;99.90
16814;DHT22;8524;57.650;11.926;2023-07-13T05:43:11;17.70;99.90
16814;DHT22;8524;57.650;11.926;2023-07-13T05:45:38;17.80;99.90
16814;DHT22;8524;57.650;11.926;2023-07-13T05:48:06;17.80;99.90
16814;DHT22;8524;57.650;11.926;2023-07-13T05:50:33;17.70;99.90
16814;DHT22;8524;57.650;11.926;2023-07-13T05:53:00;17.70;99.90
16814;DHT22;8524;57.650;11.926;2023-07-13T05:55:27;17.70;99.90
16814;DHT22;8524;57.650;11.926;2023-07-13T05:57:55;17.80;99.90
16814;DHT22;8524;57.650;11.926;2023-07-13T06:00:23;17.70;99.90
16814;DHT22;8524;57.650;11.926;2023-07-13T06:02:51;17.80;99.90
16814;DHT22;8524;57.650;11.926;2023-07-13T06:05:18;17.70;99.90
16814;DHT22;8524;57.650;11.926;2023-07-13T06:07:45;17.70;99.90
16814;DHT22;8524;57.650;11.926;2023-07-13T06:10:12;17.60;99.90
16814;DHT22;8524;57.650;11.926;2023-07-13T06:12:39;17.60;99.90
16814;DHT22;8524;57.650;11.926;2023-07-13T06:15:09;17.60;99.90
16814;DHT22;8524;57.650;11.926;2023-07-13T06:17:36;17.60;99.90
16814;DHT22;8524;57.650;11.926;2023-07-13T06:20:03;17.50;99.90
16814;DHT22;8524;57.650;11.926;2023-07-13T06:22:30;17.60;99.90
16814;DHT22;8524;57.650;11.926;2023-07-13T06:24:57;17.70;99.90
16814;DHT22;8524;57.650;11.926;2023-07-13T06:27:24;17.70;99.90
16814;DHT22;8524;57.650;11.926;2023-07-13T06:29:51;17.70;99.90
16814;DHT22;8524;57.650;11.926;2023-07-13T06:32:22;17.60;99.90
16814;DHT22;8524;57.650;11.926;2023-07-13T06:34:49;17.40;99.90
16814;DHT22;8524;57.650;11.926;2023-07-13T06:37:17;17.30;99.90
16814;DHT22;8524;57.650;11.926;2023-07-13T06:39:44;17.30;99.90
16814;DHT22;8524;57.650;11.926;2023-07-13T06:42:11;17.20;99.90
16814;DHT22;8524;57.650;11.926;2023-07-13T06:44:38;17.10;99.90
16814;DHT22;8524;57.650;11.926;2023-07-13T06:47:06;17.10;99.90
16814;DHT22;8524;57.650;11.926;2023-07-13T06:49:34;17.10;99.90
16814;DHT22;8524;57.650;11.926;2023-07-13T06:52:01;17.10;99.90
16814;DHT22;8524;57.650;11.926;2023-07-13T06:54:28;17.20;99.90
16814;DHT22;8524;57.650;11.926;2023-07-13T06:56:55;17.20;99.90
16814;DHT22;8524;57.650;11.926;2023-07-13T06:59:22;17.40;99.90
16814;DHT22;8524;57.650;11.926;2023-07-13T07:01:49;17.80;99.90
16814;DHT22;8524;57.650;11.926;2023-07-13T07:04:16;18.00;99.90
16814;DHT22;8524;57.650;11.926;2023-07-13T07:06:44;17.90;99.90
16814;DHT22;8524;57.650;11.926;2023-07-13T07:09:11;17.90;99.90
16814;DHT22;8524;57.650;11.926;2023-07-13T07:11:39;17.70;99.90
16814;DHT22;8524;57.650;11.926;2023-07-13T07:14:07;17.60;99.90
16814;DHT22;8524;57.650;11.926;2023-07-13T07:16:34;17.50;99.90
16814;DHT22;8524;57.650;11.926;2023-07-13T07:19:01;17.40;99.90
16814;DHT22;8524;57.650;11.926;2023-07-13T07:21:28;17.30;99.90
16814;DHT22;8524;57.650;11.926;2023-07-13T07:23:58;17.20;99.90
16814;DHT22;8524;57.650;11.926;2023-07-13T07:26:25;17.20;99.90
16814;DHT22;8524;57.650;11.926;2023-07-13T07:28:52;17.20;99.90
16814;DHT22;8524;57.650;11.926;2023-07-13T07:31:21;17.10;99.90
16814;DHT22;8524;57.650;11.926;2023-07-13T07:33:49;17.30;99.90
16814;DHT22;8524;57.650;11.926;2023-07-13T07:36:16;17.70;99.90
16814;DHT22;8524;57.650;11.926;2023-07-13T07:38:43;18.10;99.90
16814;DHT22;8524;57.650;11.926;2023-07-13T07:41:12;18.40;99.90
16814;DHT22;8524;57.650;11.926;2023-07-13T07:43:39;18.50;99.90
16814;DHT22;8524;57.650;11.926;2023-07-13T07:46:09;18.50;99.90
16814;DHT22;8524;57.650;11.926;2023-07-13T07:48:36;18.40;99.90
16814;DHT22;8524;57.650;11.926;2023-07-13T07:51:03;18.20;99.90
16814;DHT22;8524;57.650;11.926;2023-07-13T07:53:30;17.90;99.90
16814;DHT22;8524;57.650;11.926;2023-07-13T07:55:57;17.70;99.90
16814;DHT22;8524;57.650;11.926;2023-07-13T07:58:25;17.60;99.90
16814;DHT22;8524;57.650;11.926;2023-07-13T08:00:52;17.60;99.90
16814;DHT22;8524;57.650;11.926;2023-07-13T08:03:19;18.00;99.90
16814;DHT22;8524;57.650;11.926;2023-07-13T08:05:46;18.20;99.90
16814;DHT22;8524;57.650;11.926;2023-07-13T08:08:13;18.40;99.90
16814;DHT22;8524;57.650;11.926;2023-07-13T08:10:40;18.50;99.90
16814;DHT22;8524;57.650;11.926;2023-07-13T08:13:07;18.70;99.90
16814;DHT22;8524;57.650;11.926;2023-07-13T08:15:37;18.60;99.90
16814;DHT22;8524;57.650;11.926;2023-07-13T08:18:04;18.60;99.90
16814;DHT22;8524;57.650;11.926;2023-07-13T08:20:31;18.60;99.90
16814;DHT22;8524;57.650;11.926;2023-07-13T08:22:58;18.40;99.90
16814;DHT22;8524;57.650;11.926;2023-07-13T08:25:25;18.60;99.90
16814;DHT22;8524;57.650;11.926;2023-07-13T08:27:52;18.90;99.90
16814;DHT22;8524;57.650;11.926;2023-07-13T08:30:19;19.10;99.90
16814;DHT22;8524;57.650;11.926;2023-07-13T08:32:47;19.30;99.90
16814;DHT22;8524;57.650;11.926;2023-07-13T08:35:15;19.10;99.90
16814;DHT22;8524;57.650;11.926;2023-07-13T08:37:42;19.10;99.90
16814;DHT22;8524;57.650;11.926;2023-07-13T08:40:10;19.20;99.90
16814;DHT22;8524;57.650;11.926;2023-07-13T08:42:40;19.20;99.90
16814;DHT22;8524;57.650;11.926;2023-07-13T08:45:15;19.40;99.90
16814;DHT22;8524;57.650;11.926;2023-07-13T08:47:48;19.30;99.90
16814;DHT22;8524;57.650;11.926;2023-07-13T08:50:21;19.70;99.90
16814;DHT22;8524;57.650;11.926;2023-07-13T08:52:51;19.80;99.90
16814;DHT22;8524;57.650;11.926;2023-07-13T08:55:20;19.70;99.90
16814;DHT22;8524;57.650;11.926;2023-07-13T08:58:02;19.90;99.90
16814;DHT22;8524;57.650;11.926;2023-07-13T09:00:37;19.90;99.90
16814;DHT22;8524;57.650;11.926;2023-07-13T09:03:12;20.00;99.90
16814;DHT22;8524;57.650;11.926;2023-07-13T09:05:48;19.90;99.90
16814;DHT22;8524;57.650;11.926;2023-07-13T09:08:31;20.00;99.90
16814;DHT22;8524;57.650;11.926;2023-07-13T09:11:03;20.30;99.90
16814;DHT22;8524;57.650;11.926;2023-07-13T09:13:39;20.50;99.90
16814;DHT22;8524;57.650;11.926;2023-07-13T09:16:09;20.60;99.90
16814;DHT22;8524;57.650;11.926;2023-07-13T09:18:42;20.30;99.90
16814;DHT22;8524;57.650;11.926;2023-07-13T09:21:14;20.20;99.90
16814;DHT22;8524;57.650;11.926;2023-07-13T09:23:42;20.30;99.90
16814;DHT22;8524;57.650;11.926;2023-07-13T09:26:13;20.30;99.90
16814;DHT22;8524;57.650;11.926;2023-07-13T09:28:43;20.20;99.90
16814;DHT22;8524;57.650;11.926;2023-07-13T09:31:14;20.30;99.90
16814;DHT22;8524;57.650;11.926;2023-07-13T09:33:43;20.30;99.90
16814;DHT22;8524;57.650;11.926;2023-07-13T09:36:19;20.50;99.90
16814;DHT22;8524;57.650;11.926;2023-07-13T09:38:48;20.90;99.90
16814;DHT22;8524;57.650;11.926;2023-07-13T09:41:23;21.00;99.90
16814;DHT22;8524;57.650;11.926;2023-07-13T09:44:10;21.10;99.90
16814;DHT22;8524;57.650;11.926;2023-07-13T09:46:39;21.10;99.90
16814;DHT22;8524;57.650;11.926;2023-07-13T09:49:09;21.00;99.90
16814;DHT22;8524;57.650;11.926;2023-07-13T09:51:37;20.90;99.90
16814;DHT22;8524;57.650;11.926;2023-07-13T09:54:04;20.60;99.90
16814;DHT22;8524;57.650;11.926;2023-07-13T09:56:31;20.50;99.90
16814;DHT22;8524;57.650;11.926;2023-07-13T09:58:59;20.50;99.90
16814;DHT22;8524;57.650;11.926;2023-07-13T10:01:34;20.40;99.90
16814;DHT22;8524;57.650;11.926;2023-07-13T10:04:02;20.00;99.90
16814;DHT22;8524;57.650;11.926;2023-07-13T10:06:39;19.90;99.90
16814;DHT22;8524;57.650;11.926;2023-07-13T10:09:09;19.90;99.90
16814;DHT22;8524;57.650;11.926;2023-07-13T10:11:37;19.80;99.90
16814;DHT22;8524;57.650;11.926;2023-07-13T10:14:11;19.70;99.90
16814;DHT22;8524;57.650;11.926;2023-07-13T10:16:40;19.70;99.90
16814;DHT22;8524;57.650;11.926;2023-07-13T10:19:12;19.40;99.90
16814;DHT22;8524;57.650;11.926;2023-07-13T10:21:49;19.50;99.90
16814;DHT22;8524;57.650;11.926;2023-07-13T10:24:20;19.60;99.90
16814;DHT22;8524;57.650;11.926;2023-07-13T10:26:53;19.70;99.90
16814;DHT22;8524;57.650;11.926;2023-07-13T10:29:23;19.60;99.90
16814;DHT22;8524;57.650;11.926;2023-07-13T10:31:52;19.50;99.90
16814;DHT22;8524;57.650;11.926;2023-07-13T10:34:20;19.70;99.90
16814;DHT22;8524;57.650;11.926;2023-07-13T10:36:51;19.90;99.90
16814;DHT22;8524;57.650;11.926;2023-07-13T10:39:20;20.10;99.90
16814;DHT22;8524;57.650;11.926;2023-07-13T10:41:52;20.40;99.90
16814;DHT22;8524;57.650;11.926;2023-07-13T10:44:22;20.70;99.90
16814;DHT22;8524;57.650;11.926;2023-07-13T10:46:53;20.50;99.90
16814;DHT22;8524;57.650;11.926;2023-07-13T10:49:24;20.50;99.90
16814;DHT22;8524;57.650;11.926;2023-07-13T10:51:54;20.50;99.90
16814;DHT22;8524;57.650;11.926;2023-07-13T10:54:27;20.70;99.90
16814;DHT22;8524;57.650;11.926;2023-07-13T10:57:14;20.90;99.90
16814;DHT22;8524;57.650;11.926;2023-07-13T10:59:43;21.00;99.90
16814;DHT22;8524;57.650;11.926;2023-07-13T11:02:25;21.40;99.90
16814;DHT22;8524;57.650;11.926;2023-07-13T11:04:54;21.40;99.90
16814;DHT22;8524;57.650;11.926;2023-07-13T11:07:25;21.60;99.90
16814;DHT22;8524;57.650;11.926;2023-07-13T11:09:54;21.60;99.90
16814;DHT22;8524;57.650;11.926;2023-07-13T11:12:51;21.50;99.90
16814;DHT22;8524;57.650;11.926;2023-07-13T11:15:32;21.20;99.90
16814;DHT22;8524;57.650;11.926;2023-07-13T11:18:03;21.50;99.90
16814;DHT22;8524;57.650;11.926;2023-07-13T11:20:33;21.70;99.90
16814;DHT22;8524;57.650;11.926;2023-07-13T11:23:27;21.80;99.90
16814;DHT22;8524;57.650;11.926;2023-07-13T11:25:55;21.70;99.90
16814;DHT22;8524;57.650;11.926;2023-07-13T11:28:25;21.90;99.90
16814;DHT22;8524;57.650;11.926;2023-07-13T11:31:16;21.80;99.90
16814;DHT22;8524;57.650;11.926;2023-07-13T11:33:53;21.90;99.90
16814;DHT22;8524;57.650;11.926;2023-07-13T11:36:28;21.90;99.90
16814;DHT22;8524;57.650;11.926;2023-07-13T11:39:02;22.00;99.90
16814;DHT22;8524;57.650;11.926;2023-07-13T11:41:34;22.00;99.90
16814;DHT22;8524;57.650;11.926;2023-07-13T11:44:06;21.90;99.90
16814;DHT22;8524;57.650;11.926;2023-07-13T11:46:34;21.90;99.90
16814;DHT22;8524;57.650;11.926;2023-07-13T11:49:01;21.80;99.90
16814;DHT22;8524;57.650;11.926;2023-07-13T11:51:32;21.90;99.90
16814;DHT22;8524;57.650;11.926;2023-07-13T11:54:05;22.20;99.90
16814;DHT22;8524;57.650;11.926;2023-07-13T11:56:32;22.20;99.90
16814;DHT22;8524;57.650;11.926;2023-07-13T11:59:04;22.10;99.90
16814;DHT22;8524;57.650;11.926;2023-07-13T12:01:33;21.80;99.90
16814;DHT22;8524;57.650;11.926;2023-07-13T12:04:01;22.00;99.90
16814;DHT22;8524;57.650;11.926;2023-07-13T12:06:31;21.90;99.90
16814;DHT22;8524;57.650;11.926;2023-07-13T12:08:59;22.20;99.90
16814;DHT22;8524;57.650;11.926;2023-07-13T12:11:28;22.10;99.90
16814;DHT22;8524;57.650;11.926;2023-07-13T12:13:55;21.90;99.90
16814;DHT22;8524;57.650;11.926;2023-07-13T12:16:28;21.80;99.90
16814;DHT22;8524;57.650;11.926;2023-07-13T12:21:29;21.90;99.90
16814;DHT22;8524;57.650;11.926;2023-07-13T12:23:57;22.20;99.90
16814;DHT22;8524;57.650;11.926;2023-07-13T12:26:24;22.50;99.90
16814;DHT22;8524;57.650;11.926;2023-07-13T12:28:54;22.30;99.90
16814;DHT22;8524;57.650;11.926;2023-07-13T12:31:31;22.20;99.90
16814;DHT22;8524;57.650;11.926;2023-07-13T12:34:00;22.40;99.90
16814;DHT22;8524;57.650;11.926;2023-07-13T12:36:31;22.70;99.90
16814;DHT22;8524;57.650;11.926;2023-07-13T12:39:03;22.70;99.90
16814;DHT22;8524;57.650;11.926;2023-07-13T12:41:32;22.40;99.90
16814;DHT22;8524;57.650;11.926;2023-07-13T12:44:01;22.20;99.90
16814;DHT22;8524;57.650;11.926;2023-07-13T12:46:28;21.90;99.90
16814;DHT22;8524;57.650;11.926;2023-07-13T12:48:57;21.90;99.90
16814;DHT22;8524;57.650;11.926;2023-07-13T12:51:26;21.80;99.90
16814;DHT22;8524;57.650;11.926;2023-07-13T12:53:59;21.50;99.90
16814;DHT22;8524;57.650;11.926;2023-07-13T12:56:32;21.50;99.90
16814;DHT22;8524;57.650;11.926;2023-07-13T12:59:03;21.50;99.90
16814;DHT22;8524;57.650;11.926;2023-07-13T13:01:33;21.50;99.90
16814;DHT22;8524;57.650;11.926;2023-07-13T13:04:03;21.70;99.90
16814;DHT22;8524;57.650;11.926;2023-07-13T13:06:32;21.70;99.90
16814;DHT22;8524;57.650;11.926;2023-07-13T13:09:01;22.00;99.90
16814;DHT22;8524;57.650;11.926;2023-07-13T13:11:31;22.00;99.90
16814;DHT22;8524;57.650;11.926;2023-07-13T13:13:58;22.00;99.90
16814;DHT22;8524;57.650;11.926;2023-07-13T13:16:31;21.80;99.90
16814;DHT22;8524;57.650;11.926;2023-07-13T13:19:05;21.60;99.90
16814;DHT22;8524;57.650;11.926;2023-07-13T13:21:37;21.60;99.90
16814;DHT22;8524;57.650;11.926;2023-07-13T13:24:10;21.60;99.90
16814;DHT22;8524;57.650;11.926;2023-07-13T13:26:37;21.50;99.90
16814;DHT22;8524;57.650;11.926;2023-07-13T13:29:11;21.70;99.90
16814;DHT22;8524;57.650;11.926;2023-07-13T13:31:41;21.80;99.90
16814;DHT22;8524;57.650;11.926;2023-07-13T13:34:10;22.10;99.90
16814;DHT22;8524;57.650;11.926;2023-07-13T13:36:37;22.30;99.90
16814;DHT22;8524;57.650;11.926;2023-07-13T13:39:16;22.40;99.90
16814;DHT22;8524;57.650;11.926;2023-07-13T13:41:44;22.20;99.90
16814;DHT22;8524;57.650;11.926;2023-07-13T13:44:16;22.30;99.90
16814;DHT22;8524;57.650;11.926;2023-07-13T13:46:47;22.00;99.90
16814;DHT22;8524;57.650;11.926;2023-07-13T13:49:16;21.90;99.90
16814;DHT22;8524;57.650;11.926;2023-07-13T13:51:44;21.90;99.90
16814;DHT22;8524;57.650;11.926;2023-07-13T13:54:13;22.30;99.90
16814;DHT22;8524;57.650;11.926;2023-07-13T13:56:42;22.40;99.90
16814;DHT22;8524;57.650;11.926;2023-07-13T13:59:10;22.30;99.90
16814;DHT22;8524;57.650;11.926;2023-07-13T14:01:37;22.40;99.90
16814;DHT22;8524;57.650;11.926;2023-07-13T14:04:08;22.50;99.90
16814;DHT22;8524;57.650;11.926;2023-07-13T14:06:37;22.50;99.90
16814;DHT22;8524;57.650;11.926;2023-07-13T14:09:08;22.70;99.90
16814;DHT22;8524;57.650;11.926;2023-07-13T14:11:35;22.60;99.90
16814;DHT22;8524;57.650;11.926;2023-07-13T14:14:02;22.80;99.90
16814;DHT22;8524;57.650;11.926;2023-07-13T14:16:31;22.70;99.90
16814;DHT22;8524;57.650;11.926;2023-07-13T14:18:59;22.60;99.90
16814;DHT22;8524;57.650;11.926;2023-07-13T14:21:29;22.50;99.90
16814;DHT22;8524;57.650;11.926;2023-07-13T14:23:56;22.60;99.90
16814;DHT22;8524;57.650;11.926;2023-07-13T14:26:25;22.40;99.90
16814;DHT22;8524;57.650;11.926;2023-07-13T14:28:54;22.00;99.90
16814;DHT22;8524;57.650;11.926;2023-07-13T14:31:24;21.70;99.90
16814;DHT22;8524;57.650;11.926;2023-07-13T14:33:51;21.80;99.90
16814;DHT22;8524;57.650;11.926;2023-07-13T14:36:29;21.70;99.90
16814;DHT22;8524;57.650;11.926;2023-07-13T14:38:57;21.60;99.90
16814;DHT22;8524;57.650;11.926;2023-07-13T14:41:24;21.60;99.90
16814;DHT22;8524;57.650;11.926;2023-07-13T14:43:52;21.70;99.90
16814;DHT22;8524;57.650;11.926;2023-07-13T14:46:27;21.80;99.90
16814;DHT22;8524;57.650;11.926;2023-07-13T14:49:01;22.00;99.90
16814;DHT22;8524;57.650;11.926;2023-07-13T14:51:31;22.10;99.90
16814;DHT22;8524;57.650;11.926;2023-07-13T14:54:04;22.00;99.90
16814;DHT22;8524;57.650;11.926;2023-07-13T14:56:31;22.20;99.90
16814;DHT22;8524;57.650;11.926;2023-07-13T14:58:58;22.20;99.90
16814;DHT22;8524;57.650;11.926;2023-07-13T15:01:25;22.40;99.90
16814;DHT22;8524;57.650;11.926;2023-07-13T15:03:53;22.50;99.90
16814;DHT22;8524;57.650;11.926;2023-07-13T15:06:20;22.70;99.90
16814;DHT22;8524;57.650;11.926;2023-07-13T15:08:48;22.80;99.90
16814;DHT22;8524;57.650;11.926;2023-07-13T15:11:16;22.80;99.90
16814;DHT22;8524;57.650;11.926;2023-07-13T15:13:43;22.80;99.90
16814;DHT22;8524;57.650;11.926;2023-07-13T15:16:15;22.80;99.90
16814;DHT22;8524;57.650;11.926;2023-07-13T15:18:44;22.70;99.90
16814;DHT22;8524;57.650;11.926;2023-07-13T15:21:18;22.80;99.90
16814;DHT22;8524;57.650;11.926;2023-07-13T15:23:47;22.40;99.90
16814;DHT22;8524;57.650;11.926;2023-07-13T15:26:15;22.20;99.90
16814;DHT22;8524;57.650;11.926;2023-07-13T15:28:43;22.00;99.90
16814;DHT22;8524;57.650;11.926;2023-07-13T15:31:22;22.30;99.90
16814;DHT22;8524;57.650;11.926;2023-07-13T15:33:50;22.50;99.90
16814;DHT22;8524;57.650;11.926;2023-07-13T15:36:18;22.50;99.90
16814;DHT22;8524;57.650;11.926;2023-07-13T15:38:47;22.30;99.90
16814;DHT22;8524;57.650;11.926;2023-07-13T15:41:20;21.70;99.90
16814;DHT22;8524;57.650;11.926;2023-07-13T15:43:49;21.60;99.90